Puerto Banus, Marbella

>

This is an optional block (switch it off / on) in the settings - file ($SITE['banners'] = false;)

You can display ads, any other important text or photo’s using text / html or PHP code.

You can place one or more at the top and or bottom and it can all be different for content / size .



Meteosat more information blitzortung!


Radar lluvias  rain snow radar


Visita nuestra red de sitios de meteo:

Documentation for the template used

MeteoibericaRed estaciones Meteorologicas

MeteoclimaticRed estaciones Meteorologicas



Sin Advertencias climatologicas .En este momento tenemos Nivel Verde.    No hay Alarmas

Pagina Historial Weather Underground texto

Diario Resumen January 4, 2018 Unidades:  Métrico    impérial   Tanto
« Anterior Dia
Siguiente Dia »
Diario Semana Mensual Anual Personalizada
  Maxima: Minima: Media:
Temperatura: 17.1 °C 11.2 °C 14.4 °C
Punto de rocío: 14.1 °C 7.4 °C 10.5 °C
Humedad: 88 % 62 % 78 %
Velocidad del Viento: 16.7 km/h 0.0 km/h 5.6 km/h
Ráfagas de viento: 16.7 km/h - -
Viento:- - SSW
Pression baro: 1028.3 hPa 1022.6 hPa -
Précipitaciones: 0.0 mm    
Historical Graphs
 
 
Datos de tabla para January 4, 2018
Tiempo Temperatura Punto de rocío Pression baro Viento Velocidad del Viento Ráfagas de viento Humedad Las precipitaciones Rate ( Hora )
00:03 15.9 °C 9.8 °C 1028.3 hPa North 4.8 km/h 4.8 km/h 67 % 0.0 mm
00:04 15.8 °C 9.7 °C 1028.3 hPa North 5.6 km/h 5.6 km/h 67 % 0.0 mm
00:09 15.7 °C 9.6 °C 1028.3 hPa North 9.3 km/h 9.3 km/h 67 % 0.0 mm
00:11 15.7 °C 9.6 °C 1028.3 hPa North 13.0 km/h 13.0 km/h 67 % 0.0 mm
00:16 15.6 °C 9.4 °C 1028.3 hPa North 9.3 km/h 9.3 km/h 67 % 0.0 mm
00:20 15.5 °C 9.4 °C 1028.0 hPa North 9.3 km/h 9.3 km/h 67 % 0.0 mm
00:21 15.5 °C 9.4 °C 1028.0 hPa North 9.3 km/h 9.3 km/h 67 % 0.0 mm
00:26 15.4 °C 9.3 °C 1028.0 hPa NNW 5.6 km/h 5.6 km/h 67 % 0.0 mm
00:27 15.4 °C 9.3 °C 1028.0 hPa NNW 5.6 km/h 5.6 km/h 67 % 0.0 mm
00:32 15.3 °C 9.2 °C 1028.0 hPa NNW 5.6 km/h 5.6 km/h 67 % 0.0 mm
00:33 15.3 °C 9.2 °C 1028.0 hPa NNW 5.6 km/h 5.6 km/h 67 % 0.0 mm
00:37 15.3 °C 9.2 °C 1028.0 hPa North 7.4 km/h 7.4 km/h 67 % 0.0 mm
00:42 15.2 °C 9.1 °C 1027.7 hPa NNW 5.6 km/h 5.6 km/h 67 % 0.0 mm
00:43 15.2 °C 9.1 °C 1027.7 hPa NNW 5.6 km/h 5.6 km/h 67 % 0.0 mm
00:45 15.2 °C 8.9 °C 1027.7 hPa North 3.2 km/h 8.0 km/h 66 % 0.0 mm
00:49 15.4 °C 8.4 °C 1027.7 hPa NNW 6.4 km/h 6.4 km/h 63 % 0.0 mm
01:01 15.3 °C 8.3 °C 1027.7 hPa NNW 9.3 km/h 9.3 km/h 63 % 0.0 mm
01:06 15.0 °C 8.2 °C 1027.7 hPa North 8.0 km/h 8.0 km/h 64 % 0.0 mm
01:07 15.0 °C 8.2 °C 1027.7 hPa North 9.7 km/h 9.7 km/h 64 % 0.0 mm
01:13 15.0 °C 8.0 °C 1027.7 hPa NNW 5.6 km/h 5.6 km/h 63 % 0.0 mm
01:15 15.1 °C 7.8 °C 1027.7 hPa NNW 3.7 km/h 3.7 km/h 62 % 0.0 mm
01:19 15.1 °C 8.1 °C 1027.7 hPa Calm     63 % 0.0 mm
01:24 15.1 °C 8.1 °C 1027.7 hPa NNW 1.9 km/h 1.9 km/h 63 % 0.0 mm
01:27 15.1 °C 7.8 °C 1027.7 hPa NNW 1.9 km/h 1.9 km/h 62 % 0.0 mm
01:31 15.1 °C 8.3 °C 1027.7 hPa NNW 5.6 km/h 5.6 km/h 64 % 0.0 mm
01:32 15.1 °C 8.5 °C 1027.7 hPa NNW 5.6 km/h 5.6 km/h 65 % 0.0 mm
01:34 15.0 °C 8.4 °C 1027.7 hPa NNW 3.7 km/h 3.7 km/h 65 % 0.0 mm
01:38 14.8 °C 8.1 °C 1027.3 hPa NNW 5.6 km/h 5.6 km/h 64 % 0.0 mm
01:39 14.8 °C 8.1 °C 1027.3 hPa NNW 5.6 km/h 5.6 km/h 64 % 0.0 mm
01:41 14.8 °C 8.1 °C 1027.3 hPa NNW 5.6 km/h 5.6 km/h 64 % 0.0 mm
01:44 14.7 °C 8.0 °C 1027.3 hPa NNW 5.6 km/h 5.6 km/h 64 % 0.0 mm
01:48 14.7 °C 7.9 °C 1027.3 hPa NNW 5.6 km/h 5.6 km/h 64 % 0.0 mm
01:49 14.7 °C 8.2 °C 1027.3 hPa NNW 5.6 km/h 5.6 km/h 65 % 0.0 mm
01:54 14.7 °C 8.6 °C 1027.3 hPa NNW 3.7 km/h 3.7 km/h 67 % 0.0 mm
01:55 14.7 °C 8.8 °C 1027.3 hPa Calm     68 % 0.0 mm
02:00 14.7 °C 8.8 °C 1027.3 hPa NNW 1.6 km/h 4.8 km/h 68 % 0.0 mm
02:01 14.6 °C 8.7 °C 1027.3 hPa NNW 5.6 km/h 5.6 km/h 68 % 0.0 mm
02:06 14.4 °C 8.8 °C 1027.0 hPa NNW 6.4 km/h 6.4 km/h 69 % 0.0 mm
02:08 14.3 °C 8.5 °C 1027.3 hPa NNW 5.6 km/h 5.6 km/h 68 % 0.0 mm
02:13 14.2 °C 8.2 °C 1027.0 hPa NNW 5.6 km/h 5.6 km/h 67 % 0.0 mm
02:16 14.1 °C 8.1 °C 1027.0 hPa NNW 7.4 km/h 7.4 km/h 67 % 0.0 mm
02:19 13.9 °C 7.9 °C 1027.0 hPa North 7.4 km/h 7.4 km/h 67 % 0.0 mm
02:20 13.8 °C 7.8 °C 1027.0 hPa North 9.3 km/h 9.3 km/h 67 % 0.0 mm
02:25 13.7 °C 7.7 °C 1027.0 hPa North 7.4 km/h 7.4 km/h 67 % 0.0 mm
02:26 13.7 °C 7.7 °C 1027.0 hPa North 7.4 km/h 7.4 km/h 67 % 0.0 mm
02:31 13.7 °C 7.7 °C 1027.0 hPa North 8.0 km/h 8.0 km/h 67 % 0.0 mm
02:33 13.6 °C 7.6 °C 1027.0 hPa North 8.0 km/h 8.0 km/h 67 % 0.0 mm
02:36 13.3 °C 7.5 °C 1027.0 hPa North 7.4 km/h 7.4 km/h 68 % 0.0 mm
02:38 13.2 °C 7.4 °C 1027.0 hPa North 8.0 km/h 8.0 km/h 68 % 0.0 mm
02:41 13.1 °C 7.5 °C 1027.0 hPa North 7.4 km/h 7.4 km/h 69 % 0.0 mm
02:46 13.1 °C 7.8 °C 1027.0 hPa North 9.3 km/h 9.3 km/h 70 % 0.0 mm
02:47 13.1 °C 7.8 °C 1027.0 hPa North 9.7 km/h 9.7 km/h 70 % 0.0 mm
02:52 13.1 °C 7.7 °C 1027.0 hPa NNW 11.1 km/h 11.1 km/h 70 % 0.0 mm
02:58 13.1 °C 7.9 °C 1026.6 hPa NNW 7.4 km/h 7.4 km/h 71 % 0.0 mm
03:02 13.2 °C 8.1 °C 1026.6 hPa NNW 9.3 km/h 9.3 km/h 71 % 0.0 mm
03:04 13.3 °C 8.1 °C 1026.6 hPa NNW 5.6 km/h 5.6 km/h 71 % 0.0 mm
03:11 13.3 °C 7.9 °C 1027.0 hPa NNW 3.7 km/h 3.7 km/h 70 % 0.0 mm
03:16 13.3 °C 7.9 °C 1027.0 hPa North 8.0 km/h 8.0 km/h 70 % 0.0 mm
03:19 13.1 °C 7.7 °C 1027.0 hPa North 3.7 km/h   70 % 0.0 mm
03:24 12.8 °C 7.4 °C 1027.0 hPa North 9.3 km/h 9.3 km/h 70 % 0.0 mm
03:25 12.8 °C 7.4 °C 1027.0 hPa North 8.0 km/h 9.7 km/h 70 % 0.0 mm
03:29 12.4 °C 7.6 °C 1027.0 hPa North 6.4 km/h 6.6 km/h 72 % 0.0 mm
03:34 12.4 °C 7.7 °C 1027.0 hPa North 8.0 km/h 8.0 km/h 73 % 0.0 mm
03:35 12.4 °C 7.7 °C 1027.0 hPa North 7.4 km/h 7.4 km/h 73 % 0.0 mm
03:40 12.7 °C 8.2 °C 1027.0 hPa NNW 9.3 km/h 9.3 km/h 74 % 0.0 mm
03:45 12.8 °C 8.1 °C 1027.0 hPa NNW 3.7 km/h 3.7 km/h 73 % 0.0 mm
03:46 12.8 °C 8.1 °C 1027.0 hPa NNW 5.6 km/h 5.6 km/h 73 % 0.0 mm
03:51 12.8 °C 8.1 °C 1027.0 hPa NNW 6.4 km/h 6.4 km/h 73 % 0.0 mm
03:53 12.7 °C 8.0 °C 1027.0 hPa North 8.0 km/h 8.0 km/h 73 % 0.0 mm
03:56 12.8 °C 8.1 °C 1027.0 hPa NNW 9.3 km/h 9.3 km/h 73 % 0.0 mm
03:59 12.8 °C 8.1 °C 1027.0 hPa NNW 5.6 km/h 5.6 km/h 73 % 0.0 mm
04:04 12.7 °C 7.7 °C 1027.0 hPa NNW 5.6 km/h 5.6 km/h 72 % 0.0 mm
04:09 12.6 °C 8.1 °C 1027.0 hPa NNW 5.6 km/h 5.6 km/h 74 % 0.0 mm
04:11 12.7 °C 8.2 °C 1027.0 hPa NNW 3.7 km/h 3.7 km/h 74 % 0.0 mm
04:16 12.8 °C 8.3 °C 1027.0 hPa NNW 5.6 km/h 5.6 km/h 74 % 0.0 mm
04:18 12.9 °C 8.6 °C 1027.0 hPa NNW 5.6 km/h 5.6 km/h 75 % 0.0 mm
04:21 12.9 °C 8.4 °C 1027.0 hPa NNW 3.7 km/h 3.7 km/h 74 % 0.0 mm
04:25 13.1 °C 8.5 °C 1027.0 hPa NNW 3.7 km/h 3.7 km/h 74 % 0.0 mm
04:30 13.2 °C 8.6 °C 1027.0 hPa NNW 3.7 km/h 3.7 km/h 74 % 0.0 mm
04:31 13.2 °C 8.6 °C 1027.0 hPa Calm     74 % 0.0 mm
04:36 13.1 °C 8.3 °C 1027.0 hPa NNW 1.6 km/h 1.6 km/h 73 % 0.0 mm
04:37 13.0 °C 8.3 °C 1027.0 hPa NNW 3.2 km/h 3.2 km/h 73 % 0.0 mm
04:43 12.6 °C 7.9 °C 1027.0 hPa NNW 5.6 km/h 6.0 km/h 73 % 0.0 mm
04:49 12.4 °C 7.9 °C 1027.0 hPa North 5.6 km/h 5.6 km/h 74 % 0.0 mm
04:51 12.4 °C 7.9 °C 1027.0 hPa North 4.8 km/h 4.8 km/h 74 % 0.0 mm
04:56 12.4 °C 8.1 °C 1027.0 hPa North 5.6 km/h 5.6 km/h 75 % 0.0 mm
05:00 12.4 °C 8.1 °C 1027.0 hPa Calm     75 % 0.0 mm
05:01 12.4 °C 8.1 °C 1026.6 hPa North 3.7 km/h 3.7 km/h 75 % 0.0 mm
05:07 12.6 °C 8.3 °C 1026.6 hPa North 5.6 km/h 5.6 km/h 75 % 0.0 mm
05:08 12.6 °C 8.3 °C 1026.6 hPa NNW 5.6 km/h 5.6 km/h 75 % 0.0 mm
05:12 12.6 °C 8.3 °C 1027.0 hPa NNW 1.9 km/h   75 % 0.0 mm
05:13 12.6 °C 8.3 °C 1027.0 hPa Calm   0.2 km/h 75 % 0.0 mm
05:14 12.6 °C 8.3 °C 1027.0 hPa Calm   0.2 km/h 75 % 0.0 mm
05:15 12.6 °C 8.3 °C 1027.0 hPa Calm     75 % 0.0 mm
05:16 12.7 °C 8.3 °C 1027.0 hPa Calm   0.5 km/h 75 % 0.0 mm
05:17 12.7 °C 8.3 °C 1027.0 hPa Calm   0.5 km/h 75 % 0.0 mm
05:18 12.7 °C 8.3 °C 1027.0 hPa Calm     75 % 0.0 mm
05:19 12.7 °C 8.3 °C 1026.6 hPa Calm     75 % 0.0 mm
05:24 12.8 °C 8.7 °C 1026.6 hPa NNW 5.6 km/h 5.6 km/h 76 % 0.0 mm
05:29 13.0 °C 8.9 °C 1026.6 hPa NNW 5.6 km/h 5.6 km/h 76 % 0.0 mm
05:30 13.0 °C 8.9 °C 1026.6 hPa NNW 7.4 km/h 7.4 km/h 76 % 0.0 mm
05:35 12.6 °C 8.2 °C 1026.6 hPa North 9.3 km/h 9.3 km/h 75 % 0.0 mm
05:38 12.2 °C 7.9 °C 1026.6 hPa North 8.0 km/h 8.0 km/h 75 % 0.0 mm
05:39 12.1 °C 7.8 °C 1026.6 hPa North 8.0 km/h 8.0 km/h 75 % 0.0 mm
05:43 12.1 °C 7.9 °C 1026.6 hPa NNW 3.7 km/h 3.7 km/h 76 % 0.0 mm
05:44 12.1 °C 7.9 °C 1026.6 hPa NNW 4.8 km/h 4.8 km/h 76 % 0.0 mm
05:46 12.1 °C 8.2 °C 1026.6 hPa North 5.6 km/h 5.6 km/h 77 % 0.0 mm
05:49 12.1 °C 8.2 °C 1026.6 hPa North 5.6 km/h 5.6 km/h 77 % 0.0 mm
05:51 12.1 °C 8.2 °C 1026.6 hPa NNW 6.4 km/h 6.4 km/h 77 % 0.0 mm
05:52 12.1 °C 8.2 °C 1026.6 hPa NNW 7.4 km/h 7.4 km/h 77 % 0.0 mm
05:56 12.1 °C 8.2 °C 1026.6 hPa North 7.4 km/h 7.4 km/h 77 % 0.0 mm
05:57 12.1 °C 8.2 °C 1026.6 hPa North 5.6 km/h 5.6 km/h 77 % 0.0 mm
06:02 12.3 °C 8.6 °C 1026.6 hPa Calm     78 % 0.0 mm
06:07 12.5 °C 8.6 °C 1026.6 hPa North 5.6 km/h 5.6 km/h 77 % 0.0 mm
06:12 12.6 °C 8.6 °C 1026.6 hPa North 5.6 km/h 5.6 km/h 77 % 0.0 mm
06:17 12.6 °C 8.4 °C 1026.6 hPa NNW 6.4 km/h 6.4 km/h 76 % 0.0 mm
06:22 11.8 °C 7.7 °C 1026.6 hPa North 9.3 km/h 9.3 km/h 76 % 0.0 mm
06:25 11.5 °C 7.6 °C 1026.6 hPa North 8.0 km/h 8.0 km/h 77 % 0.0 mm
06:29 11.2 °C 7.7 °C 1026.6 hPa North 7.4 km/h 7.4 km/h 79 % 0.0 mm
06:30 11.2 °C 7.7 °C 1026.6 hPa North 7.4 km/h 7.4 km/h 79 % 0.0 mm
06:32 11.3 °C 7.8 °C 1026.6 hPa North 5.6 km/h 5.6 km/h 79 % 0.0 mm
06:33 11.3 °C 7.9 °C 1026.6 hPa North 7.4 km/h 7.4 km/h 80 % 0.0 mm
06:37 11.3 °C 7.9 °C 1026.6 hPa NNW 5.6 km/h 5.6 km/h 80 % 0.0 mm
06:41 11.4 °C 8.3 °C 1026.6 hPa NNW 7.4 km/h 7.4 km/h 81 % 0.0 mm
06:42 11.5 °C 8.3 °C 1026.6 hPa NNW 5.6 km/h 5.6 km/h 81 % 0.0 mm
06:47 11.7 °C 8.6 °C 1026.6 hPa NNW 5.6 km/h 5.6 km/h 81 % 0.0 mm
06:51 12.0 °C 8.8 °C 1026.6 hPa NNW 5.6 km/h 5.6 km/h 81 % 0.0 mm
06:55 12.2 °C 8.6 °C 1026.6 hPa NNW 8.0 km/h 8.0 km/h 79 % 0.0 mm
06:59 12.2 °C 8.6 °C 1026.6 hPa NNW 5.6 km/h 5.6 km/h 79 % 0.0 mm
07:01 12.2 °C 8.6 °C 1026.6 hPa NNW 5.6 km/h 5.6 km/h 79 % 0.0 mm
07:03 12.2 °C 8.6 °C 1026.6 hPa NNW 3.7 km/h 3.7 km/h 79 % 0.0 mm
07:08 12.2 °C 8.4 °C 1026.6 hPa NNW 5.6 km/h 5.6 km/h 78 % 0.0 mm
07:13 12.0 °C 8.3 °C 1026.6 hPa North 5.6 km/h 5.6 km/h 78 % 0.0 mm
07:14 11.8 °C 8.1 °C 1026.6 hPa North 5.6 km/h 5.6 km/h 78 % 0.0 mm
07:19 11.7 °C 8.2 °C 1026.6 hPa Calm     79 % 0.0 mm
07:20 11.7 °C 8.2 °C 1026.6 hPa Calm     79 % 0.0 mm
07:25 11.6 °C 8.1 °C 1026.6 hPa North 1.9 km/h   79 % 0.0 mm
07:27 11.6 °C 8.1 °C 1026.6 hPa North 3.7 km/h 3.7 km/h 79 % 0.0 mm
07:28 11.6 °C 8.1 °C 1026.6 hPa North 3.7 km/h 3.7 km/h 79 % 0.0 mm
07:31 11.7 °C 8.2 °C 1026.6 hPa North 5.6 km/h 5.6 km/h 79 % 0.0 mm
07:33 11.7 °C 8.2 °C 1026.6 hPa North 5.6 km/h 5.6 km/h 79 % 0.0 mm
07:34 11.7 °C 8.4 °C 1026.6 hPa North 5.6 km/h 5.6 km/h 80 % 0.0 mm
07:39 11.9 °C 8.6 °C 1026.6 hPa North 1.9 km/h 1.9 km/h 80 % 0.0 mm
07:40 11.9 °C 8.6 °C 1026.6 hPa North 3.2 km/h 3.2 km/h 80 % 0.0 mm
07:41 11.9 °C 8.3 °C 1026.6 hPa North 3.2 km/h 3.4 km/h 79 % 0.0 mm
07:45 11.8 °C 8.5 °C 1026.6 hPa North 5.6 km/h 5.6 km/h 80 % 0.0 mm
07:46 11.8 °C 8.5 °C 1026.6 hPa North 4.8 km/h 4.8 km/h 80 % 0.0 mm
07:47 11.8 °C 8.4 °C 1026.6 hPa North 5.6 km/h 5.6 km/h 80 % 0.0 mm
07:52 11.7 °C 8.3 °C 1027.0 hPa North 8.0 km/h 8.0 km/h 80 % 0.0 mm
07:53 11.6 °C 8.3 °C 1027.0 hPa North 7.4 km/h 7.4 km/h 80 % 0.0 mm
07:54 11.6 °C 8.2 °C 1027.0 hPa North 8.0 km/h 8.0 km/h 80 % 0.0 mm
07:58 11.5 °C 8.3 °C 1027.0 hPa North 6.4 km/h 6.4 km/h 81 % 0.0 mm
08:00 11.5 °C 8.3 °C 1027.0 hPa North 8.0 km/h 8.0 km/h 81 % 0.0 mm
08:05 11.4 °C 8.3 °C 1027.0 hPa North 5.6 km/h 5.6 km/h 81 % 0.0 mm
08:07 11.4 °C 8.3 °C 1027.0 hPa North 1.9 km/h   81 % 0.0 mm
08:12 11.6 °C 8.7 °C 1027.0 hPa North 5.6 km/h 5.6 km/h 82 % 0.0 mm
08:13 11.7 °C 8.7 °C 1027.0 hPa North 6.4 km/h 6.4 km/h 82 % 0.0 mm
08:15 11.7 °C 8.7 °C 1027.0 hPa North 5.6 km/h 5.6 km/h 82 % 0.0 mm
08:17 11.7 °C 8.5 °C 1027.0 hPa North 5.6 km/h 5.6 km/h 81 % 0.0 mm
08:19 11.7 °C 8.7 °C 1027.0 hPa North 5.6 km/h 5.6 km/h 82 % 0.0 mm
08:21 11.7 °C 8.6 °C 1027.0 hPa North 3.7 km/h 3.7 km/h 81 % 0.0 mm
08:26 11.8 °C 8.6 °C 1027.0 hPa North 3.7 km/h 3.7 km/h 81 % 0.0 mm
08:31 11.8 °C 8.6 °C 1027.0 hPa North 5.6 km/h 5.6 km/h 81 % 0.0 mm
08:32 11.8 °C 8.7 °C 1027.0 hPa North 3.7 km/h 3.7 km/h 81 % 0.0 mm
08:37 11.8 °C 8.7 °C 1027.0 hPa North 3.7 km/h 3.7 km/h 81 % 0.0 mm
08:39 11.8 °C 8.7 °C 1027.0 hPa North 3.7 km/h 3.7 km/h 81 % 0.0 mm
08:42 11.8 °C 8.5 °C 1027.0 hPa North 3.2 km/h 3.2 km/h 80 % 0.0 mm
08:44 11.8 °C 8.4 °C 1027.0 hPa North 3.7 km/h 3.7 km/h 80 % 0.0 mm
08:46 11.8 °C 8.4 °C 1027.0 hPa North 3.7 km/h 3.7 km/h 80 % 0.0 mm
08:49 11.8 °C 8.4 °C 1027.0 hPa North 3.7 km/h 3.7 km/h 80 % 0.0 mm
08:53 11.8 °C 8.4 °C 1027.0 hPa Calm     80 % 0.0 mm
08:56 11.8 °C 8.5 °C 1027.0 hPa Calm     80 % 0.0 mm
09:01 11.9 °C 8.6 °C 1027.0 hPa North 3.7 km/h 3.7 km/h 80 % 0.0 mm
09:02 11.9 °C 8.6 °C 1027.0 hPa North 3.7 km/h 3.7 km/h 80 % 0.0 mm
09:04 12.0 °C 8.7 °C 1027.0 hPa North 3.7 km/h 3.7 km/h 80 % 0.0 mm
09:06 12.1 °C 8.8 °C 1027.0 hPa North 1.9 km/h 1.9 km/h 80 % 0.0 mm
09:08 12.2 °C 8.8 °C 1027.0 hPa North 1.9 km/h   80 % 0.0 mm
09:13 12.4 °C 9.1 °C 1027.0 hPa North 3.7 km/h 3.7 km/h 80 % 0.0 mm
09:18 12.6 °C 9.2 °C 1027.0 hPa North 1.9 km/h 1.9 km/h 80 % 0.0 mm
09:19 12.6 °C 9.2 °C 1027.0 hPa North 1.9 km/h 1.9 km/h 80 % 0.0 mm
09:23 12.8 °C 9.4 °C 1027.0 hPa North 3.7 km/h 3.7 km/h 80 % 0.0 mm
09:24 12.8 °C 9.4 °C 1027.0 hPa North 1.9 km/h 1.9 km/h 80 % 0.0 mm
09:26 12.8 °C 9.3 °C 1027.0 hPa Calm     79 % 0.0 mm
09:27 12.8 °C 9.3 °C 1027.0 hPa Calm     79 % 0.0 mm
09:30 12.9 °C 9.3 °C 1027.0 hPa Calm     79 % 0.0 mm
09:33 12.9 °C 9.4 °C 1027.0 hPa North 3.7 km/h 3.7 km/h 79 % 0.0 mm
09:36 13.1 °C 9.6 °C 1027.0 hPa North 3.7 km/h 3.7 km/h 79 % 0.0 mm
09:38 13.2 °C 9.4 °C 1027.0 hPa Calm     78 % 0.0 mm
09:42 13.2 °C 9.4 °C 1027.0 hPa North 5.6 km/h 5.6 km/h 78 % 0.0 mm
09:47 13.0 °C 9.1 °C 1027.0 hPa North 5.6 km/h 5.6 km/h 77 % 0.0 mm
09:48 13.0 °C 9.1 °C 1027.0 hPa North 5.6 km/h 5.6 km/h 77 % 0.0 mm
09:52 12.9 °C 9.0 °C 1027.0 hPa North 3.7 km/h 3.7 km/h 77 % 0.0 mm
09:55 13.0 °C 9.1 °C 1027.0 hPa North 3.7 km/h 3.7 km/h 77 % 0.0 mm
09:59 13.1 °C 9.1 °C 1027.3 hPa North 3.7 km/h 3.7 km/h 77 % 0.0 mm
10:01 13.2 °C 9.2 °C 1027.3 hPa North 3.7 km/h 3.7 km/h 77 % 0.0 mm
10:06 13.3 °C 9.1 °C 1027.3 hPa Calm     76 % 0.0 mm
10:11 13.5 °C 9.3 °C 1027.3 hPa Calm     76 % 0.0 mm
10:16 13.8 °C 9.7 °C 1027.3 hPa Calm     76 % 0.0 mm
10:20 14.1 °C 9.8 °C 1027.3 hPa Calm     75 % 0.0 mm
10:21 14.3 °C 9.9 °C 1027.3 hPa Calm     75 % 0.0 mm
10:25 14.6 °C 10.0 °C 1027.3 hPa Calm     74 % 0.0 mm
10:30 14.7 °C 10.2 °C 1027.3 hPa Calm   1.6 km/h 74 % 0.0 mm
10:31 14.9 °C 10.5 °C 1027.3 hPa North 1.9 km/h 1.9 km/h 75 % 0.0 mm
10:36 15.1 °C 10.7 °C 1027.3 hPa North 3.7 km/h 3.7 km/h 75 % 0.0 mm
10:37 15.1 °C 10.7 °C 1027.3 hPa North 1.9 km/h 1.9 km/h 75 % 0.0 mm
10:42 15.2 °C 10.8 °C 1027.3 hPa North 3.7 km/h 3.7 km/h 75 % 0.0 mm
10:43 15.2 °C 11.0 °C 1027.3 hPa North 3.7 km/h 3.7 km/h 76 % 0.0 mm
10:48 15.1 °C 10.8 °C 1027.3 hPa North 5.6 km/h 5.6 km/h 76 % 0.0 mm
10:50 15.1 °C 11.1 °C 1027.3 hPa North 5.6 km/h 5.6 km/h 77 % 0.0 mm
10:51 15.1 °C 11.1 °C 1027.3 hPa North 5.6 km/h 5.6 km/h 77 % 0.0 mm
10:57 14.9 °C 11.2 °C 1027.7 hPa North 5.6 km/h 5.6 km/h 78 % 0.0 mm
11:00 14.9 °C 11.3 °C 1027.7 hPa NNE 5.6 km/h 5.6 km/h 79 % 0.0 mm
11:05 14.8 °C 11.3 °C 1027.7 hPa ENE 5.6 km/h 5.8 km/h 80 % 0.0 mm
11:10 14.7 °C 11.4 °C 1027.7 hPa East 9.7 km/h 9.7 km/h 81 % 0.0 mm
11:12 14.6 °C 11.4 °C 1027.7 hPa East 9.3 km/h 9.3 km/h 81 % 0.0 mm
11:17 14.7 °C 11.6 °C 1027.7 hPa East 11.3 km/h 11.3 km/h 82 % 0.0 mm
11:18 14.7 °C 11.6 °C 1027.7 hPa East 11.1 km/h 11.1 km/h 82 % 0.0 mm
11:23 14.7 °C 11.8 °C 1027.7 hPa East 9.3 km/h 9.3 km/h 83 % 0.0 mm
11:28 14.6 °C 11.6 °C 1027.7 hPa East 7.4 km/h 7.4 km/h 82 % 0.0 mm
11:29 14.6 °C 11.6 °C 1027.7 hPa East 7.4 km/h 7.4 km/h 82 % 0.0 mm
11:32 14.6 °C 11.6 °C 1027.7 hPa East 5.6 km/h 5.6 km/h 82 % 0.0 mm
11:34 14.7 °C 11.6 °C 1027.7 hPa East 7.4 km/h 7.4 km/h 82 % 0.0 mm
11:39 14.8 °C 11.7 °C 1027.7 hPa East 7.4 km/h 7.4 km/h 82 % 0.0 mm
11:41 14.8 °C 11.8 °C 1027.3 hPa East 8.0 km/h 8.0 km/h 82 % 0.0 mm
11:44 14.9 °C 11.9 °C 1027.3 hPa East 5.6 km/h 5.6 km/h 82 % 0.0 mm
11:46 15.1 °C 12.0 °C 1027.3 hPa East 7.4 km/h 7.4 km/h 82 % 0.0 mm
11:47 15.1 °C 12.0 °C 1027.3 hPa East 5.6 km/h 5.6 km/h 82 % 0.0 mm
11:51 15.1 °C 11.8 °C 1027.3 hPa East 3.7 km/h 3.7 km/h 81 % 0.0 mm
11:52 15.0 °C 11.8 °C 1027.3 hPa East 3.7 km/h 3.7 km/h 81 % 0.0 mm
11:57 15.1 °C 11.8 °C 1027.3 hPa East 3.7 km/h 3.7 km/h 81 % 0.0 mm
11:58 15.1 °C 11.8 °C 1027.3 hPa East 5.6 km/h 5.6 km/h 81 % 0.0 mm
12:03 14.9 °C 11.7 °C 1027.0 hPa East 5.6 km/h 5.6 km/h 81 % 0.0 mm
12:06 14.9 °C 11.7 °C 1027.0 hPa East 5.6 km/h 5.6 km/h 81 % 0.0 mm
12:11 14.9 °C 11.7 °C 1027.0 hPa East 5.6 km/h 5.6 km/h 81 % 0.0 mm
12:12 14.9 °C 11.7 °C 1027.0 hPa East 7.4 km/h 7.4 km/h 81 % 0.0 mm
12:18 14.9 °C 11.7 °C 1027.0 hPa East 5.6 km/h 5.6 km/h 81 % 0.0 mm
12:19 14.9 °C 11.9 °C 1027.0 hPa East 3.7 km/h 3.7 km/h 82 % 0.0 mm
12:24 15.0 °C 11.9 °C 1027.0 hPa East 5.6 km/h 5.6 km/h 82 % 0.0 mm
12:29 15.0 °C 11.9 °C 1026.6 hPa East 3.7 km/h 3.7 km/h 82 % 0.0 mm
12:30 15.0 °C 11.9 °C 1026.6 hPa East 1.6 km/h 4.8 km/h 82 % 0.0 mm
12:35 15.1 °C 12.1 °C 1026.6 hPa East 3.2 km/h 4.8 km/h 82 % 0.0 mm
12:37 15.2 °C 12.1 °C 1026.6 hPa East 5.6 km/h 5.6 km/h 82 % 0.0 mm
12:42 15.2 °C 12.2 °C 1026.3 hPa East 5.6 km/h 5.6 km/h 82 % 0.0 mm
12:44 15.2 °C 12.1 °C 1026.3 hPa East 7.4 km/h 7.4 km/h 82 % 0.0 mm
12:47 15.1 °C 11.9 °C 1026.3 hPa East 5.6 km/h 5.6 km/h 81 % 0.0 mm
12:51 15.1 °C 11.8 °C 1026.3 hPa East 5.6 km/h 5.6 km/h 81 % 0.0 mm
12:53 15.1 °C 11.8 °C 1026.3 hPa East 8.0 km/h 8.0 km/h 81 % 0.0 mm
12:57 15.1 °C 11.8 °C 1026.0 hPa ENE 6.4 km/h 6.4 km/h 81 % 0.0 mm
12:58 15.1 °C 11.8 °C 1026.0 hPa ENE 5.6 km/h 5.6 km/h 81 % 0.0 mm
13:03 15.1 °C 11.8 °C 1026.0 hPa ENE 5.6 km/h 5.6 km/h 81 % 0.0 mm
13:08 15.2 °C 12.1 °C 1025.6 hPa ENE 3.7 km/h 3.7 km/h 82 % 0.0 mm
13:10 15.2 °C 12.0 °C 1025.6 hPa ENE 3.7 km/h 3.7 km/h 81 % 0.0 mm
13:15 15.2 °C 11.9 °C 1025.6 hPa ENE 5.6 km/h 5.6 km/h 81 % 0.0 mm
13:20 15.2 °C 12.2 °C 1025.6 hPa ENE 5.6 km/h 5.6 km/h 82 % 0.0 mm
13:21 15.2 °C 12.2 °C 1025.6 hPa ENE 5.6 km/h 5.6 km/h 82 % 0.0 mm
13:22 15.2 °C 12.2 °C 1025.6 hPa ENE 5.6 km/h 5.6 km/h 82 % 0.0 mm
13:27 15.3 °C 12.2 °C 1025.3 hPa ENE 5.6 km/h 5.6 km/h 82 % 0.0 mm
13:28 15.3 °C 12.2 °C 1025.3 hPa ENE 5.6 km/h 5.6 km/h 82 % 0.0 mm
13:33 15.3 °C 12.2 °C 1025.3 hPa ENE 5.6 km/h 5.6 km/h 82 % 0.0 mm
13:35 15.3 °C 12.3 °C 1025.3 hPa ENE 5.6 km/h 5.6 km/h 82 % 0.0 mm
13:36 15.3 °C 12.3 °C 1025.3 hPa ENE 5.6 km/h 5.6 km/h 82 % 0.0 mm
13:41 15.3 °C 12.4 °C 1024.9 hPa ENE 5.6 km/h 5.6 km/h 83 % 0.0 mm
13:45 15.4 °C 12.5 °C 1024.9 hPa ENE 5.6 km/h 5.6 km/h 83 % 0.0 mm
13:47 15.4 °C 12.6 °C 1024.9 hPa ENE 5.6 km/h 5.6 km/h 83 % 0.0 mm
13:50 15.5 °C 12.6 °C 1024.9 hPa ENE 3.7 km/h 3.7 km/h 83 % 0.0 mm
13:51 15.5 °C 12.6 °C 1024.9 hPa ENE 3.7 km/h 3.7 km/h 83 % 0.0 mm
13:53 15.5 °C 12.6 °C 1024.9 hPa ENE 3.7 km/h 3.7 km/h 83 % 0.0 mm
13:58 15.7 °C 12.8 °C 1024.9 hPa ENE 1.9 km/h   83 % 0.0 mm
13:59 15.7 °C 12.8 °C 1024.9 hPa ENE 1.6 km/h 1.6 km/h 83 % 0.0 mm
14:04 15.7 °C 12.8 °C 1024.9 hPa ENE 5.6 km/h 5.6 km/h 83 % 0.0 mm
14:09 15.6 °C 12.7 °C 1024.6 hPa ENE 5.6 km/h 5.6 km/h 83 % 0.0 mm
14:10 15.6 °C 12.7 °C 1024.6 hPa ENE 5.6 km/h 5.6 km/h 83 % 0.0 mm
14:12 15.6 °C 12.7 °C 1024.6 hPa ENE 3.7 km/h 3.7 km/h 83 % 0.0 mm
14:17 15.6 °C 12.6 °C 1024.6 hPa ENE 5.6 km/h 5.6 km/h 82 % 0.0 mm
14:22 15.7 °C 12.6 °C 1024.6 hPa ENE 5.6 km/h 5.6 km/h 82 % 0.0 mm
14:27 15.7 °C 12.4 °C 1024.3 hPa ENE 5.6 km/h 5.6 km/h 81 % 0.0 mm
14:28 15.7 °C 12.4 °C 1024.3 hPa ENE 5.6 km/h 5.6 km/h 81 % 0.0 mm
14:30 15.7 °C 12.4 °C 1024.3 hPa ENE 5.6 km/h 5.6 km/h 81 % 0.0 mm
14:35 15.7 °C 12.7 °C 1024.3 hPa ENE 5.6 km/h 5.6 km/h 82 % 0.0 mm
14:40 15.8 °C 12.7 °C 1024.3 hPa ENE 5.6 km/h 5.6 km/h 82 % 0.0 mm
14:41 15.7 °C 12.7 °C 1024.3 hPa ENE 5.6 km/h 5.6 km/h 82 % 0.0 mm
14:46 15.7 °C 12.7 °C 1024.3 hPa ENE 5.6 km/h 5.6 km/h 82 % 0.0 mm
14:47 15.7 °C 12.7 °C 1024.3 hPa ENE 5.6 km/h 5.6 km/h 82 % 0.0 mm
14:52 15.8 °C 12.7 °C 1024.3 hPa ENE 5.6 km/h 5.6 km/h 82 % 0.0 mm
14:54 15.8 °C 12.9 °C 1024.3 hPa ENE 5.6 km/h 5.6 km/h 83 % 0.0 mm
14:58 15.7 °C 12.7 °C 1023.9 hPa ENE 5.6 km/h 5.6 km/h 82 % 0.0 mm
15:03 15.9 °C 13.0 °C 1023.9 hPa ENE 3.7 km/h 3.7 km/h 83 % 0.0 mm
15:04 15.9 °C 13.1 °C 1023.9 hPa ENE 3.7 km/h 3.7 km/h 83 % 0.0 mm
15:09 15.9 °C 12.8 °C 1023.9 hPa ENE 5.6 km/h 5.6 km/h 82 % 0.0 mm
15:14 15.9 °C 12.9 °C 1023.9 hPa ENE 4.8 km/h 4.8 km/h 82 % 0.0 mm
15:15 15.9 °C 12.9 °C 1023.9 hPa ENE 5.6 km/h 5.6 km/h 82 % 0.0 mm
15:20 15.9 °C 12.9 °C 1023.6 hPa ENE 3.7 km/h 3.7 km/h 82 % 0.0 mm
15:24 16.1 °C 13.1 °C 1023.6 hPa Calm     82 % 0.0 mm
15:25 16.2 °C 13.1 °C 1023.6 hPa ENE 1.9 km/h 1.9 km/h 82 % 0.0 mm
15:28 16.2 °C 12.7 °C 1023.6 hPa Calm     80 % 0.0 mm
15:30 16.2 °C 12.5 °C 1023.6 hPa Calm     79 % 0.0 mm
15:35 16.3 °C 12.6 °C 1023.6 hPa ENE 5.6 km/h 5.6 km/h 79 % 0.0 mm
15:40 16.3 °C 12.6 °C 1023.6 hPa ENE 5.6 km/h 5.6 km/h 79 % 0.0 mm
15:45 16.2 °C 12.7 °C 1023.6 hPa ENE 5.6 km/h 5.6 km/h 80 % 0.0 mm
15:46 16.2 °C 12.7 °C 1023.6 hPa ENE 6.4 km/h 6.4 km/h 80 % 0.0 mm
15:48 16.1 °C 12.7 °C 1023.2 hPa ENE 5.6 km/h 5.8 km/h 80 % 0.0 mm
15:51 16.1 °C 12.8 °C 1023.6 hPa ENE 5.6 km/h 5.6 km/h 81 % 0.0 mm
15:56 15.9 °C 12.7 °C 1023.6 hPa ENE 7.4 km/h 7.4 km/h 81 % 0.0 mm
15:58 15.9 °C 12.7 °C 1023.2 hPa ENE 7.4 km/h 7.4 km/h 81 % 0.0 mm
16:03 15.9 °C 12.8 °C 1023.2 hPa ENE 5.6 km/h 5.6 km/h 82 % 0.0 mm
16:10 15.9 °C 12.8 °C 1023.2 hPa ENE 7.4 km/h 7.4 km/h 82 % 0.0 mm
16:15 15.9 °C 13.1 °C 1023.2 hPa ENE 7.4 km/h 7.4 km/h 83 % 0.0 mm
16:16 15.9 °C 13.0 °C 1023.2 hPa ENE 8.0 km/h 8.0 km/h 83 % 0.0 mm
16:21 15.9 °C 12.8 °C 1023.2 hPa ENE 8.0 km/h 8.0 km/h 82 % 0.0 mm
16:22 15.9 °C 12.8 °C 1023.2 hPa ENE 7.4 km/h 7.4 km/h 82 % 0.0 mm
16:23 15.9 °C 12.9 °C 1023.2 hPa ENE 8.0 km/h 8.0 km/h 82 % 0.0 mm
16:27 16.0 °C 12.9 °C 1023.2 hPa ENE 11.1 km/h 11.1 km/h 82 % 0.0 mm
16:28 16.1 °C 13.2 °C 1023.2 hPa ENE 11.1 km/h 11.1 km/h 83 % 0.0 mm
16:29 16.2 °C 13.4 °C 1023.2 hPa ENE 11.1 km/h 11.1 km/h 84 % 0.0 mm
16:34 16.2 °C 13.7 °C 1023.2 hPa ENE 11.1 km/h 11.1 km/h 85 % 0.0 mm
16:36 16.2 °C 13.7 °C 1023.2 hPa ENE 11.1 km/h 11.1 km/h 85 % 0.0 mm
16:41 16.1 °C 13.7 °C 1023.2 hPa ENE 7.4 km/h 7.4 km/h 86 % 0.0 mm
16:42 16.0 °C 13.7 °C 1023.2 hPa ENE 8.0 km/h 8.0 km/h 86 % 0.0 mm
16:44 16.0 °C 13.7 °C 1023.2 hPa ENE 8.0 km/h 8.0 km/h 86 % 0.0 mm
16:47 15.9 °C 13.6 °C 1023.2 hPa ENE 7.4 km/h 7.4 km/h 86 % 0.0 mm
16:49 15.9 °C 13.6 °C 1023.2 hPa ENE 5.6 km/h 5.6 km/h 86 % 0.0 mm
16:50 15.9 °C 13.6 °C 1023.2 hPa ENE 7.4 km/h 7.4 km/h 86 % 0.0 mm
16:55 15.8 °C 13.5 °C 1022.9 hPa ENE 11.3 km/h 11.3 km/h 86 % 0.0 mm
17:01 15.9 °C 13.6 °C 1023.2 hPa ENE 11.3 km/h 11.3 km/h 86 % 0.0 mm
17:06 16.0 °C 13.8 °C 1023.2 hPa ENE 14.8 km/h 14.8 km/h 87 % 0.0 mm
17:11 16.0 °C 13.8 °C 1023.2 hPa ENE 13.0 km/h 13.0 km/h 87 % 0.0 mm
17:14 16.0 °C 13.8 °C 1023.2 hPa ENE 13.0 km/h 13.0 km/h 87 % 0.0 mm
17:19 16.0 °C 14.0 °C 1023.2 hPa ENE 13.0 km/h 13.0 km/h 88 % 0.0 mm
17:23 16.1 °C 14.1 °C 1022.9 hPa ENE 16.7 km/h 16.7 km/h 88 % 0.0 mm
17:24 16.1 °C 14.1 °C 1022.9 hPa East 16.7 km/h 16.7 km/h 88 % 0.0 mm
17:27 16.1 °C 14.1 °C 1022.9 hPa ENE 14.8 km/h 14.8 km/h 88 % 0.0 mm
17:30 16.1 °C 13.9 °C 1022.9 hPa NE 14.8 km/h 14.8 km/h 87 % 0.0 mm
17:35 16.2 °C 14.0 °C 1022.9 hPa ENE 16.7 km/h 16.7 km/h 87 % 0.0 mm
17:39 16.2 °C 14.0 °C 1023.2 hPa ENE 14.8 km/h 14.8 km/h 87 % 0.0 mm
17:40 16.1 °C 13.9 °C 1023.2 hPa ENE 14.8 km/h 14.8 km/h 87 % 0.0 mm
17:45 16.2 °C 14.1 °C 1023.2 hPa ENE 13.0 km/h 13.0 km/h 87 % 0.0 mm
17:46 16.2 °C 14.1 °C 1023.2 hPa ENE 13.0 km/h 13.0 km/h 87 % 0.0 mm
17:51 16.3 °C 14.1 °C 1023.2 hPa ENE 8.0 km/h 8.0 km/h 87 % 0.0 mm
17:53 16.3 °C 13.9 °C 1023.2 hPa ENE 8.0 km/h 8.0 km/h 86 % 0.0 mm
17:57 16.3 °C 14.0 °C 1023.2 hPa NE 7.4 km/h 7.4 km/h 86 % 0.0 mm
17:58 16.3 °C 14.0 °C 1023.2 hPa NE 7.4 km/h 7.4 km/h 86 % 0.0 mm
17:59 16.3 °C 14.0 °C 1023.2 hPa NE 6.4 km/h 6.4 km/h 86 % 0.0 mm
18:04 16.4 °C 14.1 °C 1023.2 hPa NE 7.4 km/h 7.4 km/h 86 % 0.0 mm
18:06 16.4 °C 13.8 °C 1023.2 hPa NE 5.6 km/h 5.6 km/h 85 % 0.0 mm
18:11 16.5 °C 13.9 °C 1023.2 hPa NE 3.7 km/h 3.7 km/h 85 % 0.0 mm
18:12 16.6 °C 14.0 °C 1023.2 hPa NE 5.6 km/h 5.6 km/h 85 % 0.0 mm
18:17 16.6 °C 13.7 °C 1023.2 hPa NE 3.7 km/h 3.7 km/h 83 % 0.0 mm
18:22 16.7 °C 13.6 °C 1022.9 hPa Calm     82 % 0.0 mm
18:27 16.8 °C 13.6 °C 1023.2 hPa Calm     81 % 0.0 mm
18:29 16.9 °C 13.6 °C 1022.9 hPa Calm     81 % 0.0 mm
18:31 16.9 °C 13.7 °C 1023.2 hPa Calm     81 % 0.0 mm
18:34 17.0 °C 13.5 °C 1022.9 hPa NE 5.6 km/h 5.6 km/h 80 % 0.0 mm
18:35 17.1 °C 13.6 °C 1022.9 hPa NE 5.6 km/h 5.6 km/h 80 % 0.0 mm
18:41 17.1 °C 13.4 °C 1022.9 hPa NE 3.7 km/h 3.7 km/h 79 % 0.0 mm
18:42 17.1 °C 13.4 °C 1022.9 hPa NE 3.7 km/h 3.7 km/h 79 % 0.0 mm
18:48 17.0 °C 13.3 °C 1022.9 hPa NE 5.6 km/h 5.6 km/h 79 % 0.0 mm
18:53 16.9 °C 13.2 °C 1022.9 hPa Calm     79 % 0.0 mm
18:58 16.9 °C 13.2 °C 1022.9 hPa Calm     79 % 0.0 mm
19:00 16.9 °C 13.2 °C 1022.9 hPa Calm     79 % 0.0 mm
19:05 16.7 °C 13.1 °C 1023.2 hPa Calm     79 % 0.0 mm
19:07 16.7 °C 13.0 °C 1023.2 hPa Calm     79 % 0.0 mm
19:12 16.7 °C 13.2 °C 1023.2 hPa Calm     80 % 0.0 mm
19:16 16.7 °C 13.3 °C 1023.2 hPa Calm     80 % 0.0 mm
19:21 16.7 °C 13.2 °C 1023.2 hPa NE 5.6 km/h 5.6 km/h 80 % 0.0 mm
19:23 16.7 °C 13.2 °C 1023.2 hPa NE 5.6 km/h 5.6 km/h 80 % 0.0 mm
19:28 16.5 °C 13.1 °C 1023.2 hPa NE 5.6 km/h 5.6 km/h 80 % 0.0 mm
19:29 16.4 °C 13.0 °C 1023.2 hPa NE 5.6 km/h 5.6 km/h 80 % 0.0 mm
19:34 16.4 °C 13.1 °C 1023.2 hPa NE 3.7 km/h 3.7 km/h 81 % 0.0 mm
19:37 16.3 °C 13.1 °C 1023.2 hPa NE 3.7 km/h 3.7 km/h 81 % 0.0 mm
19:39 16.3 °C 13.0 °C 1023.2 hPa NE 5.6 km/h 5.6 km/h 81 % 0.0 mm
19:42 16.2 °C 12.9 °C 1023.2 hPa NE 3.7 km/h 3.7 km/h 81 % 0.0 mm
19:45 16.2 °C 12.9 °C 1023.2 hPa NNE 6.4 km/h 6.4 km/h 81 % 0.0 mm
19:48 16.1 °C 12.8 °C 1023.2 hPa NNE 5.6 km/h 5.6 km/h 81 % 0.0 mm
19:53 15.9 °C 12.7 °C 1023.2 hPa NNE 5.6 km/h 5.6 km/h 81 % 0.0 mm
19:54 15.9 °C 12.6 °C 1023.2 hPa Calm     81 % 0.0 mm
19:59 15.8 °C 12.4 °C 1023.2 hPa NNE 5.6 km/h 5.6 km/h 80 % 0.0 mm
20:01 15.8 °C 12.3 °C 1023.2 hPa NNE 4.8 km/h 4.8 km/h 80 % 0.0 mm
20:06 15.6 °C 12.1 °C 1023.2 hPa North 6.4 km/h 6.4 km/h 80 % 0.0 mm
20:11 15.5 °C 12.3 °C 1023.2 hPa North 1.9 km/h   81 % 0.0 mm
20:13 15.6 °C 12.3 °C 1023.2 hPa Calm     81 % 0.0 mm
20:18 15.5 °C 12.3 °C 1023.2 hPa North 5.6 km/h 5.6 km/h 81 % 0.0 mm
20:19 15.4 °C 12.2 °C 1023.2 hPa North 5.6 km/h 5.6 km/h 81 % 0.0 mm
20:23 15.3 °C 12.1 °C 1023.2 hPa North 6.4 km/h 6.4 km/h 81 % 0.0 mm
20:24 15.3 °C 11.8 °C 1023.2 hPa North 8.0 km/h 8.0 km/h 80 % 0.0 mm
20:29 15.0 °C 11.8 °C 1023.2 hPa NNW 7.4 km/h 7.4 km/h 81 % 0.0 mm
20:32 14.9 °C 11.7 °C 1023.2 hPa NNW 3.7 km/h 3.7 km/h 81 % 0.0 mm
20:37 14.8 °C 11.6 °C 1023.2 hPa NNW 3.7 km/h 3.7 km/h 81 % 0.0 mm
20:38 14.8 °C 11.6 °C 1023.2 hPa NNW 3.7 km/h 3.7 km/h 81 % 0.0 mm
20:43 14.9 °C 11.8 °C 1023.2 hPa Calm     82 % 0.0 mm
20:44 14.9 °C 11.9 °C 1023.2 hPa Calm     82 % 0.0 mm
20:47 14.9 °C 11.9 °C 1023.2 hPa NNW 4.8 km/h 4.8 km/h 82 % 0.0 mm
20:51 14.9 °C 11.9 °C 1023.2 hPa North 6.4 km/h 6.4 km/h 82 % 0.0 mm
20:53 14.8 °C 11.8 °C 1023.2 hPa North 5.6 km/h 5.6 km/h 82 % 0.0 mm
20:58 14.8 °C 11.8 °C 1023.2 hPa North 5.6 km/h 5.6 km/h 82 % 0.0 mm
21:00 14.8 °C 11.9 °C 1023.2 hPa North 5.6 km/h 5.6 km/h 83 % 0.0 mm
21:05 14.8 °C 11.8 °C 1023.2 hPa North 6.4 km/h 6.4 km/h 82 % 0.0 mm
21:10 14.8 °C 11.8 °C 1023.2 hPa North 5.6 km/h 5.6 km/h 82 % 0.0 mm
21:11 14.8 °C 11.9 °C 1023.2 hPa North 6.4 km/h 6.4 km/h 83 % 0.0 mm
21:12 14.8 °C 11.7 °C 1023.2 hPa North 9.7 km/h 9.7 km/h 82 % 0.0 mm
21:16 14.8 °C 11.9 °C 1023.2 hPa NNE 7.4 km/h 7.4 km/h 83 % 0.0 mm
21:18 14.8 °C 11.9 °C 1023.2 hPa NNE 5.6 km/h 5.6 km/h 83 % 0.0 mm
21:23 14.8 °C 11.9 °C 1023.2 hPa NNE 7.4 km/h 7.4 km/h 83 % 0.0 mm
21:26 14.7 °C 11.6 °C 1023.2 hPa North 9.3 km/h 9.3 km/h 82 % 0.0 mm
21:31 14.7 °C 11.8 °C 1023.2 hPa North 8.0 km/h 8.0 km/h 83 % 0.0 mm
21:36 14.7 °C 11.9 °C 1023.2 hPa North 5.6 km/h 5.6 km/h 83 % 0.0 mm
21:38 14.7 °C 11.7 °C 1023.2 hPa North 6.4 km/h 6.4 km/h 82 % 0.0 mm
21:40 14.7 °C 11.7 °C 1023.2 hPa North 5.6 km/h 5.6 km/h 82 % 0.0 mm
21:44 14.7 °C 11.7 °C 1023.2 hPa NNW 9.3 km/h 9.3 km/h 82 % 0.0 mm
21:49 14.8 °C 11.3 °C 1023.2 hPa North 7.4 km/h 7.4 km/h 80 % 0.0 mm
21:54 14.8 °C 11.2 °C 1023.2 hPa North 6.4 km/h 6.4 km/h 79 % 0.0 mm
21:55 14.7 °C 11.1 °C 1023.2 hPa North 5.6 km/h 5.6 km/h 79 % 0.0 mm
22:01 14.8 °C 11.1 °C 1023.2 hPa North 7.4 km/h 7.4 km/h 78 % 0.0 mm
22:06 14.9 °C 10.9 °C 1023.2 hPa North 7.4 km/h 7.4 km/h 77 % 0.0 mm
22:09 15.0 °C 11.0 °C 1023.2 hPa NNW 5.6 km/h 5.6 km/h 77 % 0.0 mm
22:21 15.2 °C 10.8 °C 1023.2 hPa NNW 5.6 km/h 5.6 km/h 75 % 0.0 mm
22:28 15.2 °C 10.6 °C 1023.2 hPa NNW 1.9 km/h 1.9 km/h 74 % 0.0 mm
22:30 15.2 °C 10.6 °C 1023.2 hPa NNW 1.6 km/h 4.8 km/h 74 % 0.0 mm
22:31 15.2 °C 10.6 °C 1023.2 hPa NNW 5.6 km/h 5.6 km/h 74 % 0.0 mm
22:32 15.2 °C 10.6 °C 1023.2 hPa NNW 5.6 km/h 5.6 km/h 74 % 0.0 mm
22:34 15.2 °C 10.6 °C 1023.2 hPa NNW 5.6 km/h 5.6 km/h 74 % 0.0 mm
22:35 15.2 °C 10.6 °C 1023.2 hPa NNW 5.6 km/h 5.6 km/h 74 % 0.0 mm
22:36 15.3 °C 10.7 °C 1023.2 hPa NNW 5.6 km/h 5.6 km/h 74 % 0.0 mm
22:38 15.3 °C 10.7 °C 1023.2 hPa NNW 5.6 km/h 5.6 km/h 74 % 0.0 mm
22:42 15.3 °C 10.5 °C 1023.2 hPa NW 5.6 km/h 5.6 km/h 73 % 0.0 mm
22:43 15.3 °C 10.5 °C 1023.2 hPa NW 5.6 km/h 5.6 km/h 73 % 0.0 mm
22:44 15.3 °C 10.5 °C 1023.2 hPa NW 7.4 km/h 7.4 km/h 73 % 0.0 mm
22:47 15.4 °C 10.6 °C 1023.2 hPa NW 7.4 km/h 7.4 km/h 73 % 0.0 mm
22:48 15.4 °C 10.6 °C 1022.9 hPa NW 7.4 km/h 7.4 km/h 73 % 0.0 mm
22:49 15.4 °C 10.6 °C 1022.9 hPa NW 7.4 km/h 7.4 km/h 73 % 0.0 mm
22:50 15.4 °C 10.6 °C 1022.9 hPa NW 8.0 km/h 8.0 km/h 73 % 0.0 mm
22:52 15.4 °C 10.6 °C 1022.9 hPa NW 9.3 km/h 9.3 km/h 73 % 0.0 mm
22:53 15.3 °C 10.5 °C 1022.9 hPa NW 5.6 km/h 5.6 km/h 73 % 0.0 mm
22:57 15.2 °C 10.4 °C 1022.9 hPa NW 5.6 km/h 5.6 km/h 73 % 0.0 mm
23:01 14.8 °C 10.1 °C 1022.9 hPa NW 5.6 km/h 5.6 km/h 73 % 0.0 mm
23:07 14.5 °C 10.1 °C 1022.9 hPa NNW 7.4 km/h 7.4 km/h 75 % 0.0 mm
23:12 14.3 °C 10.1 °C 1022.9 hPa NNW 9.3 km/h 9.3 km/h 76 % 0.0 mm
23:17 13.9 °C 10.0 °C 1022.9 hPa North 14.8 km/h 14.8 km/h 77 % 0.0 mm
23:18 13.9 °C 10.0 °C 1022.9 hPa North 14.8 km/h 14.8 km/h 77 % 0.0 mm
23:23 13.8 °C 10.0 °C 1022.9 hPa North 11.1 km/h 11.1 km/h 78 % 0.0 mm
23:28 13.7 °C 9.9 °C 1022.6 hPa North 9.3 km/h 9.3 km/h 78 % 0.0 mm
23:33 13.7 °C 9.9 °C 1022.9 hPa NNW 9.7 km/h 9.7 km/h 78 % 0.0 mm
23:34 13.7 °C 9.9 °C 1022.9 hPa NNW 7.4 km/h 7.4 km/h 78 % 0.0 mm
23:39 13.7 °C 10.1 °C 1022.9 hPa North 7.4 km/h 7.4 km/h 79 % 0.0 mm
23:41 13.6 °C 10.1 °C 1022.9 hPa North 9.3 km/h 9.3 km/h 79 % 0.0 mm
23:46 13.6 °C 10.0 °C 1022.9 hPa North 9.3 km/h 9.3 km/h 79 % 0.0 mm
23:47 13.6 °C 10.0 °C 1022.9 hPa North 9.3 km/h 9.3 km/h 79 % 0.0 mm
23:52 13.5 °C 9.9 °C 1022.6 hPa NNW 8.0 km/h 8.0 km/h 79 % 0.0 mm
23:55 13.4 °C 9.9 °C 1022.6 hPa North 5.6 km/h 5.6 km/h 79 % 0.0 mm
Puerto Banus, Marbella
Elogios de Weather Underground - 2.25 mb

Guión original por  Jim McMurry - jmcmurry@mwt.net Adaptado para la plantilla por  Wim van der Kuil - Leuven-Template.eu

Usted encontrará nuestra información del tiempo también en:

Weather Underground

Iberian Peninsula Weather Network